Terminal Aerodrome Forecast
Issued by NWS St Louis, MO

Home | Current Version | Previous Version | Text Only | Print | Product List | Glossary On
Versions: 1 2 3 4 5 6 7 8 9 10 11 12 13 14 15 16 17 18 19 20 21 22 23 24
755
FTUS43 KLSX 301525 AAA
TAFCOU
TAF AMD
KCOU 301525Z 3015/0112 15012KT P6SM SCT005 OVC010
      TEMPO 3015/3017 4SM -RA BR OVC005
     FM301800 22008KT P6SM BKN030
     FM010000 33006KT P6SM SCT040=

USA.gov is the U.S. government's official web portal to all federal, state and local government web resources and services.